Time;durP1;ratioP1;P1;durP2;ratioP2;P2;SDS_P1;SDS_P2;PMS_P1;PMS_P2;Temp;Humidity;BMP_temperature;BMP_pressure;BME280_temperature;BME280_humidity;BME280_pressure;Samples;Min_cycle;Max_cycle;Signal;HPM_P1;HPM_P2
2022/09/03 00:00:06;;;;;;;2.70;2.50;;;14.50;99.90;;;;;;4991680;28;20815;-82
2022/09/03 00:02:39;;;;;;;2.40;2.20;;;15.10;99.90;;;;;;4977839;28;20465;-82
2022/09/03 00:05:13;;;;;;;2.00;1.90;;;15.20;99.90;;;;;;4977624;28;20450;-82
2022/09/03 00:07:47;;;;;;;2.27;2.10;;;15.20;99.90;;;;;;4977690;28;20469;-82
2022/09/03 00:10:20;;;;;;;2.53;2.27;;;15.30;99.90;;;;;;4977708;28;20454;-82
2022/09/03 00:12:52;;;;;;;2.67;1.90;;;15.40;99.90;;;;;;4977507;28;21002;-82
2022/09/03 00:15:21;;;;;;;2.03;1.80;;;15.50;99.90;;;;;;4975850;28;20994;-82
2022/09/03 00:17:52;;;;;;;5.70;2.30;;;15.50;99.90;;;;;;4977575;28;20460;-82
2022/09/03 00:20:24;;;;;;;2.50;2.23;;;15.50;99.90;;;;;;4977406;28;20458;-82
2022/09/03 00:22:53;;;;;;;2.40;2.00;;;15.60;99.90;;;;;;4977312;28;20457;-82
2022/09/03 00:25:25;;;;;;;2.93;2.37;;;15.60;99.90;;;;;;4977303;28;20458;-82
2022/09/03 00:27:58;;;;;;;2.90;1.93;;;15.70;99.90;;;;;;4977127;28;20450;-82
2022/09/03 00:30:26;;;;;;;2.07;1.90;;;;;;;;;;4975982;28;20458;-82
2022/09/03 00:32:59;;;;;;;2.50;2.20;;;15.70;99.90;;;;;;4974250;28;20457;-82
2022/09/03 00:35:30;;;;;;;3.30;2.30;;;15.60;99.90;;;;;;4970559;28;20450;-82
2022/09/03 00:37:57;;;;;;;2.37;2.17;;;;;;;;;;4974684;28;20456;-82
2022/09/03 00:40:43;;;;;;;2.37;2.17;;;15.60;99.90;;;;;;4976894;28;20481;-82
2022/09/03 00:43:21;;;;;;;2.57;1.90;;;15.60;99.90;;;;;;4975352;28;20462;-82
2022/09/03 00:45:55;;;;;;;2.80;2.40;;;15.50;99.90;;;;;;4970474;28;20532;-82
2022/09/03 00:48:26;;;;;;;4.27;2.43;;;15.60;99.90;;;;;;4977046;28;20464;-82
2022/09/03 00:51:05;;;;;;;4.70;2.80;;;15.60;99.90;;;;;;4972710;28;20446;-82
2022/09/03 00:53:40;;;;;;;2.00;1.90;;;15.60;99.90;;;;;;4976071;28;20446;-82
2022/09/03 00:56:15;;;;;;;2.47;2.10;;;15.70;99.90;;;;;;4973715;28;20484;-82
2022/09/03 00:59:03;;;;;;;2.30;2.10;;;15.90;99.90;;;;;;4976797;28;20449;-82
2022/09/03 01:01:36;;;;;;;3.83;1.90;;;15.70;99.90;;;;;;4973779;28;21122;-82
2022/09/03 01:04:20;;;;;;;3.40;1.90;;;15.70;99.90;;;;;;4972801;28;20450;-82
2022/09/03 01:06:54;;;;;;;2.57;1.90;;;15.80;99.90;;;;;;4974803;28;20888;-82
2022/09/03 01:09:35;;;;;;;2.13;1.80;;;15.80;99.90;;;;;;4973621;28;20508;-82
2022/09/03 01:12:14;;;;;;;2.57;2.37;;;15.50;99.90;;;;;;4976537;28;20465;-82
2022/09/03 01:14:55;;;;;;;3.97;2.20;;;15.80;99.90;;;;;;4974978;28;20474;-83
2022/09/03 01:17:33;;;;;;;2.07;1.80;;;15.70;99.90;;;;;;4970559;28;20500;-82
2022/09/03 01:20:12;;;;;;;2.80;1.73;;;15.70;99.90;;;;;;4974252;28;20462;-82
2022/09/03 01:23:19;;;;;;;1.90;1.80;;;15.40;99.90;;;;;;4976350;28;20454;-82
2022/09/03 01:25:53;;;;;;;2.57;1.77;;;15.80;99.90;;;;;;4976241;28;20462;-82
2022/09/03 01:28:33;;;;;;;2.07;1.80;;;15.70;99.90;;;;;;4974477;28;20460;-82
2022/09/03 01:31:08;;;;;;;2.90;2.17;;;15.60;99.90;;;;;;4974998;28;20445;-82
2022/09/03 01:33:40;;;;;;;2.93;2.00;;;15.60;99.90;;;;;;4970728;28;20461;-82
2022/09/03 01:36:17;;;;;;;3.43;2.20;;;15.50;99.90;;;;;;4973472;28;20478;-82
2022/09/03 01:38:48;;;;;;;2.10;1.90;;;15.50;99.90;;;;;;4975903;28;20812;-82
2022/09/03 01:44:24;;;;;;;2.03;1.93;;;15.40;99.90;;;;;;4974887;28;20524;-82
2022/09/03 01:47:02;;;;;;;2.03;1.93;;;15.40;99.90;;;;;;4975846;28;20453;-82
2022/09/03 01:49:36;;;;;;;2.60;2.17;;;15.40;99.90;;;;;;4975846;28;20450;-82
2022/09/03 01:52:10;;;;;;;2.30;1.73;;;15.40;99.90;;;;;;4971747;28;20458;-82
2022/09/03 01:54:50;;;;;;;2.40;2.20;;;15.30;99.90;;;;;;4975737;28;20474;-82
2022/09/03 01:57:35;;;;;;;3.60;2.10;;;15.30;99.90;;;;;;4975538;28;20552;-82
2022/09/03 02:00:08;;;;;;;2.10;1.97;;;15.40;99.90;;;;;;4974421;28;20462;-83
2022/09/03 02:02:35;;;;;;;2.57;1.90;;;;;;;;;;4975502;28;20497;-82
2022/09/03 02:05:08;;;;;;;2.10;1.90;;;15.30;99.90;;;;;;4975499;28;20462;-82
2022/09/03 02:07:37;;;;;;;2.07;1.87;;;15.30;99.90;;;;;;4972384;28;20465;-82
2022/09/03 02:10:07;;;;;;;3.00;2.13;;;15.30;99.90;;;;;;4975269;28;20454;-82
2022/09/03 02:12:37;;;;;;;2.30;1.77;;;15.20;99.90;;;;;;4975344;28;20455;-82
2022/09/03 02:15:09;;;;;;;2.53;2.10;;;15.20;99.90;;;;;;4973914;28;20521;-82
2022/09/03 02:17:37;;;;;;;3.90;2.03;;;;;;;;;;4975215;28;20497;-82
2022/09/03 02:20:10;;;;;;;2.30;2.10;;;15.10;99.90;;;;;;4972384;28;20805;-82
2022/09/03 02:22:38;;;;;;;2.47;2.27;;;;;;;;;;4975113;28;20442;-82
2022/09/03 02:25:05;;;;;;;2.23;1.80;;;;;;;;;;4975175;28;20946;-82
2022/09/03 02:27:32;;;;;;;5.37;2.13;;;;;;;;;;4972217;28;20442;-82
2022/09/03 02:30:00;;;;;;;2.70;2.20;;;15.10;99.90;;;;;;4973879;28;20450;-82
2022/09/03 02:32:28;;;;;;;2.27;2.07;;;15.00;99.90;;;;;;4972027;28;20517;-82
2022/09/03 02:34:55;;;;;;;2.13;2.00;;;;;;;;;;4974963;28;20450;-82
2022/09/03 02:37:22;;;;;;;1.90;1.80;;;;;;;;;;4974841;28;20506;-82
2022/09/03 02:39:50;;;;;;;3.10;2.47;;;;;;;;;;4974871;28;20461;-82
2022/09/03 02:42:19;;;;;;;4.57;2.80;;;14.90;99.90;;;;;;4973227;28;20478;-82
2022/09/03 02:44:50;;;;;;;2.03;1.93;;;14.90;99.90;;;;;;4973643;28;20508;-82
2022/09/03 02:47:19;;;;;;;3.90;2.40;;;;;;;;;;4974857;28;20450;-82
2022/09/03 02:49:47;;;;;;;2.17;1.97;;;14.80;99.90;;;;;;4974652;28;20516;-82
2022/09/03 02:52:14;;;;;;;3.03;2.07;;;;;;;;;;4971916;28;20457;-82
2022/09/03 02:54:43;;;;;;;1.90;1.80;;;;;;;;;;4974742;28;20465;-82
2022/09/03 02:57:13;;;;;;;3.73;2.20;;;14.70;99.90;;;;;;4974664;28;20978;-82
2022/09/03 02:59:42;;;;;;;2.33;2.00;;;;;;;;;;4973394;28;20442;-82
2022/09/03 03:02:10;;;;;;;2.47;2.00;;;;;;;;;;4974409;28;20458;-82
2022/09/03 03:04:37;;;;;;;4.33;2.60;;;;;;;;;;4974520;28;20465;-82
2022/09/03 03:07:05;;;;;;;3.53;2.80;;;14.50;99.90;;;;;;4974422;28;20454;-82
2022/09/03 03:09:32;;;;;;;2.40;2.20;;;;;;;;;;4974551;28;20454;-82
2022/09/03 03:11:59;;;;;;;2.90;2.00;;;;;;;;;;4974364;28;20453;-82
2022/09/03 03:14:26;;;;;;;2.30;2.10;;;;;;;;;;4972836;28;20471;-82
2022/09/03 03:16:54;;;;;;;2.40;2.20;;;;;;;;;;4973819;28;20494;-82
2022/09/03 03:19:21;;;;;;;3.30;2.23;;;;;;;;;;4974332;28;20462;-82
2022/09/03 03:21:48;;;;;;;8.67;2.27;;;;;;;;;;4974320;28;20454;-82
2022/09/03 03:24:16;;;;;;;2.23;2.13;;;14.10;99.90;;;;;;4974212;28;20465;-82
2022/09/03 03:26:43;;;;;;;2.83;2.20;;;;;;;;;;4974187;28;20458;-82
2022/09/03 03:29:16;;;;;;;2.37;2.17;;;14.00;99.90;;;;;;4972980;28;20458;-82
2022/09/03 03:31:43;;;;;;;2.80;2.60;;;;;;;;;;4974219;28;20516;-82
2022/09/03 03:34:10;;;;;;;5.50;2.70;;;;;;;;;;4974071;28;20462;-82
2022/09/03 03:36:37;;;;;;;3.23;2.23;;;;;;;;;;4973997;28;20446;-82
2022/09/03 03:39:04;;;;;;;2.70;2.50;;;;;;;;;;4971294;28;20455;-82
2022/09/03 03:41:35;;;;;;;3.77;2.20;;;13.80;99.90;;;;;;4974139;28;20481;-82
2022/09/03 03:44:03;;;;;;;2.53;2.33;;;13.80;99.90;;;;;;4972749;28;20451;-82
2022/09/03 03:46:32;;;;;;;2.97;2.17;;;13.80;99.90;;;;;;4974063;28;20469;-82
2022/09/03 03:48:59;;;;;;;3.07;2.70;;;;;;;;;;4974014;28;20477;-81
2022/09/03 03:51:27;;;;;;;2.70;2.50;;;;;;;;;;4974007;28;20457;-82
2022/09/03 03:53:55;;;;;;;3.80;2.50;;;13.70;99.90;;;;;;4974020;28;20462;-82
2022/09/03 03:56:23;;;;;;;3.90;2.57;;;14.00;99.90;;;;;;4973846;28;20450;-82
2022/09/03 03:58:52;;;;;;;3.00;2.70;;;14.00;99.90;;;;;;4972776;28;20494;-81
2022/09/03 04:01:20;;;;;;;4.20;2.47;;;14.10;99.90;;;;;;4973986;28;20467;-82
2022/09/03 04:03:47;;;;;;;2.53;2.20;;;;;;;;;;4973856;28;20976;-82
2022/09/03 04:06:15;;;;;;;2.63;2.43;;;14.20;99.90;;;;;;4973827;28;21078;-82
2022/09/03 04:08:44;;;;;;;3.43;2.50;;;14.20;99.90;;;;;;4973842;28;20461;-82
2022/09/03 04:11:16;;;;;;;4.20;2.77;;;14.20;99.90;;;;;;4973773;28;20458;-82
2022/09/03 04:13:45;;;;;;;4.13;2.90;;;14.20;99.90;;;;;;4973741;28;20474;-82
2022/09/03 04:16:15;;;;;;;2.63;2.43;;;14.10;99.90;;;;;;4973219;28;20486;-82
2022/09/03 04:18:42;;;;;;;5.10;3.13;;;;;;;;;;4973781;28;20502;-82
2022/09/03 04:21:10;;;;;;;3.67;2.70;;;14.20;99.90;;;;;;4973735;28;20469;-82
2022/09/03 04:23:39;;;;;;;3.33;3.10;;;14.20;99.90;;;;;;4973530;28;20450;-82
2022/09/03 04:26:06;;;;;;;3.50;2.67;;;14.30;99.90;;;;;;4974269;28;20965;-81
2022/09/03 04:28:33;;;;;;;4.10;3.27;;;;;;;;;;4977273;28;20821;-81
2022/09/03 04:31:02;;;;;;;3.10;2.60;;;14.40;99.90;;;;;;4976032;28;20453;-82
2022/09/03 04:33:30;;;;;;;2.93;2.73;;;14.50;99.90;;;;;;4973329;28;20458;-81
2022/09/03 04:36:08;;;;;;;3.87;3.47;;;14.50;99.90;;;;;;4973001;28;20450;-82
2022/09/03 04:38:35;;;;;;;4.47;3.10;;;;;;;;;;4977180;28;20501;-82
2022/09/03 04:41:02;;;;;;;3.60;3.10;;;;;;;;;;4977120;28;20461;-81
2022/09/03 04:43:30;;;;;;;5.10;3.33;;;;;;;;;;4977102;28;20458;-82
2022/09/03 04:45:58;;;;;;;3.17;2.90;;;14.80;99.90;;;;;;4975833;28;20806;-82
2022/09/03 04:48:25;;;;;;;3.60;3.30;;;;;;;;;;4976916;28;20458;-81
2022/09/03 04:50:54;;;;;;;3.80;3.50;;;14.90;99.90;;;;;;4976810;28;20464;-82
2022/09/03 04:53:22;;;;;;;3.90;3.13;;;;;;;;;;4976853;28;20450;-82
2022/09/03 04:55:49;;;;;;;3.53;3.23;;;;;;;;;;4976889;28;20513;-81
2022/09/03 04:58:16;;;;;;;3.60;3.00;;;;;;;;;;4976630;28;20494;-82
2022/09/03 05:00:43;;;;;;;4.00;3.57;;;;;;;;;;4972555;28;20454;-82
2022/09/03 05:03:11;;;;;;;3.53;3.23;;;;;;;;;;4976629;28;20453;-82
2022/09/03 05:05:38;;;;;;;3.30;3.00;;;;;;;;;;4976681;28;20806;-82
2022/09/03 05:08:07;;;;;;;3.90;3.60;;;;;;;;;;4976529;28;20458;-82
2022/09/03 05:10:34;;;;;;;3.37;3.17;;;;;;;;;;4976587;28;20846;-82
2022/09/03 05:13:02;;;;;;;3.97;3.67;;;15.40;99.90;;;;;;4976382;28;20470;-82
2022/09/03 05:15:30;;;;;;;4.53;3.37;;;;;;;;;;4975097;28;20494;-82
2022/09/03 05:17:57;;;;;;;4.00;3.33;;;15.30;99.90;;;;;;4976236;28;20520;-82
2022/09/03 05:20:25;;;;;;;3.43;3.13;;;;;;;;;;4976406;28;20828;-82
2022/09/03 05:22:52;;;;;;;4.90;3.80;;;;;;;;;;4976301;28;20509;-82
2022/09/03 05:25:20;;;;;;;3.40;3.10;;;15.70;99.90;;;;;;4976375;28;20874;-81
2022/09/03 05:27:47;;;;;;;5.90;3.50;;;;;;;;;;4969078;28;20828;-82
2022/09/03 05:30:15;;;;;;;6.17;3.70;;;;;;;;;;4975023;28;20459;-82
2022/09/03 05:32:42;;;;;;;4.40;3.53;;;;;;;;;;4976151;28;20454;-82
2022/09/03 05:35:10;;;;;;;4.20;3.33;;;15.70;99.90;;;;;;4976069;28;20975;-82
2022/09/03 05:37:38;;;;;;;10.13;3.40;;;;;;;;;;4975605;28;20504;-82
2022/09/03 05:40:07;;;;;;;3.80;3.50;;;14.90;99.90;;;;;;4976048;28;20489;-82
2022/09/03 05:42:36;;;;;;;3.77;3.47;;;16.80;99.90;;;;;;4973003;28;20466;-82
2022/09/03 05:45:03;;;;;;;3.80;3.37;;;;;;;;;;4969630;28;20513;-82
2022/09/03 05:47:31;;;;;;;3.93;3.60;;;;;;;;;;4975917;28;20453;-82
2022/09/03 05:49:58;;;;;;;3.47;2.93;;;;;;;;;;4975839;28;20461;-82
2022/09/03 05:52:25;;;;;;;3.70;3.40;;;;;;;;;;4975879;28;20458;-82
2022/09/03 05:54:52;;;;;;;3.63;3.33;;;;;;;;;;4975742;28;20446;-82
2022/09/03 05:57:19;;;;;;;4.07;3.67;;;;;;;;;;4975649;28;20794;-82
2022/09/03 05:59:47;;;;;;;5.63;3.90;;;16.00;99.90;;;;;;4974488;28;20450;-82
2022/09/03 06:02:14;;;;;;;4.30;4.00;;;;;;;;;;4970713;28;20806;-82
2022/09/03 06:04:41;;;;;;;4.00;3.70;;;;;;;;;;4975650;28;20447;-82
2022/09/03 06:07:09;;;;;;;5.60;3.40;;;;;;;;;;4975608;28;20809;-82
2022/09/03 06:09:36;;;;;;;3.63;3.43;;;;;;;;;;4972773;28;20473;-82
2022/09/03 06:12:03;;;;;;;4.70;4.30;;;;;;;;;;4969687;28;20490;-82
2022/09/03 06:14:30;;;;;;;4.30;4.00;;;;;;;;;;4974193;28;20945;-82
2022/09/03 06:16:59;;;;;;;3.80;3.47;;;;;;;;;;4975343;28;20457;-83
2022/09/03 06:19:26;;;;;;;5.03;4.63;;;;;;;;;;4975096;28;20501;-83
2022/09/03 06:21:54;;;;;;;4.50;4.20;;;;;;;;;;4975274;28;20450;-83
2022/09/03 06:24:23;;;;;;;5.00;4.60;;;16.50;99.90;;;;;;4975168;28;20461;-83
2022/09/03 06:26:50;;;;;;;4.43;4.03;;;;;;;;;;4974973;28;20521;-83
2022/09/03 06:29:19;;;;;;;5.30;4.30;;;;;;;;;;4973824;28;20476;-83
2022/09/03 06:31:47;;;;;;;5.60;4.00;;;;;;;;;;4975177;28;20446;-83
2022/09/03 06:34:17;;;;;;;4.10;3.80;;;16.70;99.90;;;;;;4975011;28;20541;-83
2022/09/03 06:36:44;;;;;;;4.33;3.93;;;;;;;;;;4974964;28;20486;-83
2022/09/03 06:39:11;;;;;;;4.50;4.13;;;;;;;;;;4974618;28;20502;-83
2022/09/03 06:41:38;;;;;;;4.33;3.93;;;;;;;;;;4974756;28;20817;-83
2022/09/03 06:44:10;;;;;;;4.30;4.00;;;17.00;99.90;;;;;;4973562;28;21317;-83
2022/09/03 06:46:41;;;;;;;4.37;4.07;;;17.00;99.90;;;;;;4974772;28;20987;-83
2022/09/03 06:49:08;;;;;;;5.00;4.50;;;;;;;;;;4974516;28;20450;-83
2022/09/03 06:51:37;;;;;;;5.13;4.40;;;17.10;99.90;;;;;;4974180;28;20522;-83
2022/09/03 06:54:06;;;;;;;5.27;4.07;;;17.20;99.90;;;;;;4974734;28;20454;-83
2022/09/03 06:56:34;;;;;;;4.60;4.20;;;17.30;99.90;;;;;;4970724;28;20450;-83
2022/09/03 06:59:08;;;;;;;4.87;4.30;;;17.30;99.90;;;;;;4973349;28;20497;-83
2022/09/03 07:01:39;;;;;;;9.90;4.43;;;;;;;;;;4974706;28;20454;-83
2022/09/03 07:04:07;;;;;;;5.40;3.93;;;17.50;99.90;;;;;;4974606;28;20498;-83
2022/09/03 07:06:38;;;;;;;4.80;4.30;;;17.60;99.90;;;;;;4974496;28;20443;-83
2022/09/03 07:09:05;;;;;;;4.13;3.73;;;;;;;;;;4974488;28;20490;-83
2022/09/03 07:11:34;;;;;;;8.37;5.20;;;;;;;;;;4974505;28;20840;-83
2022/09/03 07:14:02;;;;;;;8.80;3.83;;;;;;;;;;4974187;28;20460;-83
2022/09/03 07:16:30;;;;;;;3.77;3.47;;;17.80;99.90;;;;;;4974364;28;20504;-83
2022/09/03 07:18:59;;;;;;;7.33;3.80;;;;;;;;;;4971195;28;20993;-83
2022/09/03 07:21:28;;;;;;;5.37;4.40;;;17.80;99.90;;;;;;4975340;28;20457;-83
2022/09/03 07:23:57;;;;;;;5.17;3.70;;;17.90;99.90;;;;;;4974478;28;20481;-83
2022/09/03 07:26:25;;;;;;;12.87;4.40;;;18.10;99.90;;;;;;4974635;28;20557;-83
2022/09/03 07:28:53;;;;;;;5.27;3.90;;;;;;;;;;4973247;28;20497;-82
2022/09/03 07:31:24;;;;;;;5.87;4.00;;;18.50;99.90;;;;;;4974662;28;20500;-83
2022/09/03 07:33:54;;;;;;;4.80;4.03;;;18.50;99.90;;;;;;4974358;28;20458;-82
2022/09/03 07:36:22;;;;;;;4.03;3.60;;;18.70;99.90;;;;;;4974310;28;20460;-84
2022/09/03 07:38:49;;;;;;;4.37;3.50;;;;;;;;;;4974087;28;20494;-82
2022/09/03 07:41:17;;;;;;;4.27;3.83;;;19.00;99.90;;;;;;4974198;28;20446;-82
2022/09/03 07:43:47;;;;;;;4.30;4.00;;;19.20;99.90;;;;;;4974141;28;20949;-83
2022/09/03 07:46:15;;;;;;;3.93;3.40;;;18.80;99.90;;;;;;4974212;28;20808;-82
2022/09/03 07:48:42;;;;;;;4.00;3.60;;;;;;;;;;4982576;28;20454;-82
2022/09/03 07:51:10;;;;;;;3.87;3.57;;;;;;;;;;4995899;28;20445;-83
2022/09/03 07:53:37;;;;;;;4.13;3.83;;;;;;;;;;4979844;28;20449;-83
2022/09/03 07:56:06;;;;;;;4.07;3.67;;;18.70;99.90;;;;;;4974244;28;20461;-83
2022/09/03 07:58:36;;;;;;;3.67;3.33;;;18.80;99.90;;;;;;4924378;28;21023;-82
2022/09/03 08:01:07;;;;;;;4.30;3.70;;;19.00;99.90;;;;;;4973724;28;20977;-82
2022/09/03 08:03:34;;;;;;;4.00;3.70;;;;;;;;;;4974133;28;20458;-82
2022/09/03 08:06:03;;;;;;;4.00;3.70;;;19.40;99.90;;;;;;4974703;28;20460;-83
2022/09/03 08:08:31;;;;;;;3.90;3.30;;;;;;;;;;4977807;28;20938;-83
2022/09/03 08:11:04;;;;;;;6.13;3.70;;;;;;;;;;4977488;28;20564;-83
2022/09/03 08:13:32;;;;;;;4.10;3.70;;;;;;;;;;4977619;28;20462;-83
2022/09/03 08:16:00;;;;;;;3.63;3.33;;;20.60;99.90;;;;;;4976845;28;20581;-82
2022/09/03 08:18:36;;;;;;;4.10;3.80;;;;;;;;;;4977402;28;20500;-83
2022/09/03 08:21:06;;;;;;;4.77;3.70;;;22.50;99.90;;;;;;4977534;28;20457;-84
2022/09/03 08:23:33;;;;;;;4.40;3.67;;;;;;;;;;4974797;28;20540;-82
2022/09/03 08:26:00;;;;;;;3.90;3.60;;;;;;;;;;4977483;28;20439;-82
2022/09/03 08:28:28;;;;;;;4.00;3.60;;;;;;;;;;4977302;28;20461;-82
2022/09/03 08:30:55;;;;;;;4.23;3.20;;;;;;;;;;4976260;28;20508;-83
2022/09/03 08:33:36;;;;;;;5.60;3.00;;;;;;;;;;4977311;28;20454;-83
2022/09/03 08:36:05;;;;;;;4.23;3.87;;;23.80;92.50;;;;;;4977023;28;20501;-83
2022/09/03 08:38:32;;;;;;;5.47;3.37;;;;;;;;;;4974363;28;20536;-83
2022/09/03 08:41:09;;;;;;;3.20;3.00;;;24.50;92.00;;;;;;4977033;28;20941;-84
2022/09/03 08:43:53;;;;;;;2.90;2.70;;;23.60;92.10;;;;;;4972267;28;20485;-81
2022/09/03 08:46:20;;;;;;;3.33;3.03;;;;;;;;;;4977245;28;20458;-84
2022/09/03 08:48:49;;;;;;;3.10;2.90;;;21.70;97.80;;;;;;4977106;28;20785;-80
2022/09/03 08:51:18;;;;;;;2.80;2.60;;;21.30;99.90;;;;;;4976976;28;20454;-85
2022/09/03 08:53:49;;;;;;;3.70;3.40;;;21.40;99.90;;;;;;4974256;28;20450;-87
2022/09/03 08:56:24;;;;;;;3.43;3.13;;;21.60;99.90;;;;;;4976817;28;20972;-85
2022/09/03 08:58:51;;;;;;;3.27;3.07;;;;;;;;;;4975864;28;20501;-85
2022/09/03 09:01:30;;;;;;;3.80;3.50;;;21.40;99.90;;;;;;4976734;28;20458;-86
2022/09/03 09:04:09;;;;;;;3.87;3.27;;;21.50;99.90;;;;;;4976807;28;20489;-83
2022/09/03 09:06:43;;;;;;;5.17;3.50;;;21.30;99.90;;;;;;4976663;28;20454;-85
2022/09/03 09:09:23;;;;;;;5.47;3.87;;;21.30;99.90;;;;;;4976663;28;20457;-88
2022/09/03 09:12:00;;;;;;;4.50;3.43;;;21.10;99.90;;;;;;4976469;28;20985;-86
2022/09/03 09:14:36;;;;;;;3.40;3.10;;;20.90;99.90;;;;;;4974487;28;20953;-87
2022/09/03 09:17:18;;;;;;;3.57;3.27;;;20.70;99.90;;;;;;4958081;29;20458;-91
2022/09/03 09:19:55;;;;;;;3.40;3.20;;;21.00;99.90;;;;;;4957126;29;20502;-90
2022/09/03 09:22:29;;;;;;;3.77;3.40;;;21.30;99.90;;;;;;4956904;29;20462;-86
2022/09/03 09:24:59;;;;;;;3.70;3.40;;;21.70;99.90;;;;;;4956922;29;20447;-88
2022/09/03 09:27:26;;;;;;;8.00;3.93;;;;;;;;;;4956942;29;20451;-86
2022/09/03 09:29:54;;;;;;;3.60;3.17;;;23.80;95.50;;;;;;4956249;29;20462;-87
2022/09/03 09:32:22;;;;;;;3.20;3.00;;;;;;;;;;4957401;29;20463;-88
2022/09/03 09:34:52;;;;;;;3.93;3.50;;;;;;;;;;4957569;29;20479;-86
2022/09/03 09:37:19;;;;;;;3.07;2.87;;;;;;;;;;4956880;29;20460;-87
2022/09/03 09:39:56;;;;;;;2.90;2.70;;;24.70;91.00;;;;;;4956915;29;20494;-86
2022/09/03 09:42:23;;;;;;;3.37;3.10;;;;;;;;;;4956957;29;20463;-84
2022/09/03 09:44:51;;;;;;;3.93;3.33;;;;;;;;;;4954998;29;21030;-84
2022/09/03 09:47:23;;;;;;;5.73;3.40;;;23.60;90.80;;;;;;4956331;29;20538;-84
2022/09/03 09:49:54;;;;;;;3.60;3.30;;;23.50;93.50;;;;;;4956575;29;20462;-87
2022/09/03 09:52:24;;;;;;;3.37;3.17;;;;;;;;;;4956616;29;20451;-83
2022/09/03 09:54:52;;;;;;;3.80;3.50;;;;;;;;;;4956446;29;20534;-82
2022/09/03 09:57:23;;;;;;;3.63;3.33;;;23.20;92.10;;;;;;4956219;29;20451;-82
2022/09/03 09:59:51;;;;;;;3.23;3.03;;;;;;;;;;4956301;29;20498;-85
2022/09/03 10:02:25;;;;;;;4.03;3.40;;;22.60;94.80;;;;;;4956417;29;20530;-83
2022/09/03 10:04:55;;;;;;;3.83;3.53;;;22.70;94.30;;;;;;4956303;29;20460;-85
2022/09/03 10:07:26;;;;;;;4.10;3.60;;;22.90;95.10;;;;;;4956247;29;20451;-82
2022/09/03 10:10:05;;;;;;;4.97;4.20;;;23.10;95.10;;;;;;4956774;28;20455;-85
2022/09/03 10:12:35;;;;;;;4.50;3.80;;;22.60;95.40;;;;;;4957065;29;20461;-82
2022/09/03 10:15:11;;;;;;;4.27;3.87;;;22.40;95.50;;;;;;4954896;28;20497;-81
2022/09/03 10:17:47;;;;;;;3.77;3.47;;;22.50;95.00;;;;;;4972488;28;20490;-81
2022/09/03 10:20:29;;;;;;;6.83;4.20;;;22.60;95.90;;;;;;4976877;28;20505;-80
2022/09/03 10:22:59;;;;;;;3.90;3.50;;;22.40;96.80;;;;;;4979671;28;20458;-82
2022/09/03 10:25:31;;;;;;;4.57;4.10;;;22.60;94.90;;;;;;4999126;28;20449;-84
2022/09/03 10:28:00;;;;;;;4.33;3.93;;;23.60;93.50;;;;;;4979105;28;20478;-83
2022/09/03 10:30:29;;;;;;;6.33;4.23;;;24.00;92.00;;;;;;4974336;28;20606;-83
2022/09/03 10:33:08;;;;;;;4.37;4.07;;;24.20;90.60;;;;;;4971298;28;20461;-82
2022/09/03 10:35:44;;;;;;;4.77;3.80;;;24.10;89.40;;;;;;4974965;28;20453;-83
2022/09/03 10:38:17;;;;;;;3.80;3.60;;;24.00;90.40;;;;;;4975152;28;20454;-84
2022/09/03 10:40:53;;;;;;;3.90;3.60;;;24.20;89.70;;;;;;4974762;28;20494;-84
2022/09/03 10:43:44;;;;;;;3.80;3.60;;;24.30;89.50;;;;;;4975521;28;20458;-83
2022/09/03 10:46:16;;;;;;;4.67;3.97;;;24.70;87.20;;;;;;4973721;28;20461;-82
2022/09/03 10:48:54;;;;;;;4.07;3.77;;;24.50;88.20;;;;;;4975044;28;20816;-84
2022/09/03 10:51:27;;;;;;;4.10;3.80;;;24.80;86.30;;;;;;4974644;28;20450;-83
2022/09/03 10:54:25;;;;;;;4.43;3.80;;;24.50;84.70;;;;;;4976080;28;20461;-83
2022/09/03 10:57:01;;;;;;;3.63;3.37;;;24.50;88.30;;;;;;4948452;28;20952;-82
2022/09/03 10:59:36;;;;;;;4.13;3.77;;;24.60;88.60;;;;;;4973248;28;20544;-85
2022/09/03 11:02:22;;;;;;;6.40;3.80;;;24.00;87.50;;;;;;4974422;28;20461;-83
2022/09/03 11:05:01;;;;;;;5.40;3.57;;;23.90;90.30;;;;;;4974828;28;20490;-89
2022/09/03 11:07:36;;;;;;;4.10;3.70;;;23.90;91.60;;;;;;4974774;28;20492;-84
2022/09/03 11:10:13;;;;;;;4.20;3.83;;;23.60;92.20;;;;;;4974639;28;20969;-83
2022/09/03 11:12:45;;;;;;;6.13;4.20;;;23.20;92.30;;;;;;4974411;28;20441;-81
2022/09/03 11:15:18;;;;;;;3.77;3.47;;;23.20;93.60;;;;;;4972908;28;20485;-81
2022/09/03 11:17:48;;;;;;;5.17;4.37;;;23.10;93.30;;;;;;4974333;28;20465;-81
2022/09/03 11:20:19;;;;;;;5.30;4.80;;;22.80;93.30;;;;;;4974238;28;20501;-80
2022/09/03 11:22:50;;;;;;;4.40;4.00;;;22.60;94.40;;;;;;4974264;28;20487;-82
2022/09/03 11:25:20;;;;;;;4.60;4.20;;;22.60;95.10;;;;;;4974223;28;20438;-81
2022/09/03 11:27:57;;;;;;;4.80;4.20;;;22.60;93.60;;;;;;4974336;28;20811;-81
2022/09/03 11:30:27;;;;;;;4.90;4.50;;;22.50;94.00;;;;;;4969271;28;20505;-81
2022/09/03 11:32:59;;;;;;;5.40;4.90;;;22.30;94.50;;;;;;4969035;28;20458;-83
2022/09/03 11:35:28;;;;;;;4.87;4.57;;;22.00;96.40;;;;;;4970948;28;20456;-81
2022/09/03 11:37:59;;;;;;;4.90;4.40;;;21.90;95.60;;;;;;4973943;28;20450;-81
2022/09/03 11:40:32;;;;;;;4.53;4.13;;;21.80;97.00;;;;;;4974039;28;20498;-80
2022/09/03 11:43:07;;;;;;;6.27;4.23;;;21.70;96.90;;;;;;4974072;28;20446;-79
2022/09/03 11:45:36;;;;;;;6.37;4.40;;;21.70;96.90;;;;;;4972864;28;20964;-80
2022/09/03 11:48:18;;;;;;;5.17;4.77;;;21.60;96.70;;;;;;4973948;28;20496;-81
2022/09/03 11:50:53;;;;;;;4.50;4.10;;;21.40;98.70;;;;;;4971400;28;20501;-81
2022/09/03 11:53:28;;;;;;;5.13;4.63;;;21.10;99.90;;;;;;4970983;28;20936;-80
2022/09/03 11:56:00;;;;;;;6.00;4.87;;;20.90;99.90;;;;;;4974092;28;20888;-79
2022/09/03 11:58:32;;;;;;;7.30;4.90;;;20.80;99.90;;;;;;4973897;28;20529;-80
2022/09/03 12:01:01;;;;;;;5.80;4.53;;;20.40;99.90;;;;;;4969593;28;20580;-79
2022/09/03 12:03:40;;;;;;;5.07;4.67;;;20.30;99.90;;;;;;4968374;28;20482;-80
2022/09/03 12:06:36;;;;;;;5.87;4.50;;;20.00;99.90;;;;;;4973947;28;20494;-81
2022/09/03 12:09:22;;;;;;;5.00;4.60;;;20.00;99.90;;;;;;4973769;28;20541;-80
2022/09/03 12:11:56;;;;;;;6.40;5.73;;;19.90;99.90;;;;;;4970922;28;20461;-80
2022/09/03 12:14:31;;;;;;;5.60;5.10;;;19.80;99.90;;;;;;4972508;28;20793;-81
2022/09/03 12:17:14;;;;;;;5.97;5.40;;;19.70;99.90;;;;;;4970669;28;20476;-79
2022/09/03 12:19:46;;;;;;;6.33;4.93;;;19.30;99.90;;;;;;4973778;28;20493;-78
2022/09/03 12:22:14;;;;;;;2.53;2.33;;;;;;;;;;4974068;28;20949;-80
2022/09/03 12:24:43;;;;;;;2.40;2.20;;;17.70;99.90;;;;;;4974020;28;20552;-77
2022/09/03 12:27:13;;;;;;;3.50;2.83;;;17.40;99.90;;;;;;4974092;28;20466;-81
2022/09/03 12:29:58;;;;;;;2.90;2.60;;;17.30;99.90;;;;;;4972555;28;20458;-84
2022/09/03 12:32:27;;;;;;;2.50;2.30;;;17.80;99.90;;;;;;4973614;28;20453;-84
2022/09/03 12:34:54;;;;;;;2.03;1.73;;;;;;;;;;4973687;28;20462;-84
2022/09/03 12:37:23;;;;;;;5.40;2.73;;;16.60;99.90;;;;;;4973500;28;20960;-82
2022/09/03 12:39:54;;;;;;;2.33;2.10;;;16.60;99.90;;;;;;4973423;28;21091;-80
2022/09/03 12:42:25;;;;;;;3.03;2.10;;;16.50;99.90;;;;;;4973390;28;20446;-79
2022/09/03 12:44:53;;;;;;;3.77;2.60;;;;;;;;;;4972344;28;20446;-78
2022/09/03 12:47:23;;;;;;;3.60;3.20;;;16.60;99.90;;;;;;4973586;28;20453;-81
2022/09/03 12:49:51;;;;;;;5.13;3.37;;;16.80;99.90;;;;;;4976622;28;20466;-79
2022/09/03 12:52:23;;;;;;;8.00;3.17;;;16.80;99.90;;;;;;4976894;28;20458;-80
2022/09/03 12:54:56;;;;;;;2.93;2.53;;;16.80;99.90;;;;;;4976764;28;20845;-78
2022/09/03 12:57:27;;;;;;;4.63;2.80;;;16.90;99.90;;;;;;4976922;28;20446;-79
2022/09/03 13:00:01;;;;;;;3.10;2.30;;;16.80;99.90;;;;;;4975515;28;20497;-80
2022/09/03 13:02:35;;;;;;;2.57;2.30;;;15.90;99.90;;;;;;4976842;28;20485;-87
2022/09/03 13:05:02;;;;;;;3.60;2.40;;;;;;;;;;4976585;28;20454;-80
2022/09/03 13:07:33;;;;;;;5.00;2.50;;;16.70;99.90;;;;;;4976542;28;20808;-81
2022/09/03 13:10:06;;;;;;;4.80;2.13;;;16.80;99.90;;;;;;4976490;28;20474;-78
2022/09/03 13:12:41;;;;;;;3.57;1.83;;;16.90;99.90;;;;;;4976566;28;20449;-81
2022/09/03 13:15:10;;;;;;;8.50;2.10;;;16.80;99.90;;;;;;4975312;28;20478;-86
2022/09/03 13:18:02;;;;;;;3.93;1.90;;;17.10;99.90;;;;;;4976594;28;20470;-84
2022/09/03 13:20:34;;;;;;;2.27;1.60;;;17.10;99.90;;;;;;4976330;28;20501;-82
2022/09/03 13:23:17;;;;;;;1.87;1.60;;;17.20;99.90;;;;;;4976392;28;20489;-82
2022/09/03 13:25:55;;;;;;;4.20;1.80;;;17.40;99.90;;;;;;4976405;28;20465;-84
2022/09/03 13:28:34;;;;;;;7.80;2.03;;;17.60;99.90;;;;;;4976151;28;20451;-78
2022/09/03 13:31:08;;;;;;;9.07;1.43;;;17.90;99.90;;;;;;4975107;28;20449;-83
2022/09/03 13:33:41;;;;;;;1.37;1.00;;;18.40;99.90;;;;;;4976179;28;20458;-87
2022/09/03 13:36:14;;;;;;;2.20;1.33;;;18.20;99.90;;;;;;4975797;28;20455;-83
2022/09/03 13:38:46;;;;;;;3.17;1.33;;;18.10;99.90;;;;;;4975935;28;20832;-83
2022/09/03 13:41:19;;;;;;;2.00;1.30;;;18.30;99.90;;;;;;4975929;28;20494;-85
2022/09/03 13:43:53;;;;;;;2.43;1.30;;;18.40;99.90;;;;;;4976512;28;20450;-86
2022/09/03 13:46:26;;;;;;;3.53;1.43;;;18.30;99.90;;;;;;4977052;28;20446;-88